createdAt,value
2023-04-16T00:01:36.984Z,42.87
2023-04-16T00:04:38.912Z,43.00
2023-04-16T00:07:41.131Z,42.30
2023-04-16T00:10:42.861Z,42.23
2023-04-16T00:13:44.587Z,43.50
2023-04-16T00:16:46.686Z,41.47
2023-04-16T00:19:48.518Z,41.47
2023-04-16T00:22:51.529Z,41.50
2023-04-16T00:25:53.895Z,40.33
2023-04-16T00:28:55.688Z,41.57
2023-04-16T00:31:57.437Z,40.50
2023-04-16T00:34:59.209Z,40.60
2023-04-16T00:38:00.974Z,40.97
2023-04-16T00:41:02.829Z,41.93
2023-04-16T00:44:04.559Z,40.23
2023-04-16T00:47:07.669Z,40.60
2023-04-16T00:50:11.392Z,41.53
2023-04-16T00:53:14.777Z,41.37
2023-04-16T00:56:17.831Z,40.00
2023-04-16T00:59:19.920Z,40.53
2023-04-16T01:02:21.742Z,40.70
2023-04-16T01:05:23.526Z,38.87
2023-04-16T01:08:25.333Z,38.43
2023-04-16T01:11:27.327Z,37.83
2023-04-16T01:14:29.216Z,36.93
2023-04-16T01:17:30.897Z,37.90
2023-04-16T01:20:36.039Z,34.70
2023-04-16T01:23:37.825Z,33.93
2023-04-16T01:26:39.499Z,34.97
2023-04-16T01:29:41.270Z,35.60
2023-04-16T01:32:43.020Z,35.90
2023-04-16T01:35:44.869Z,34.40
2023-04-16T01:38:46.649Z,34.17
2023-04-16T01:41:48.343Z,32.53
2023-04-16T01:44:50.155Z,33.20
2023-04-16T01:47:52.452Z,32.97
2023-04-16T01:50:54.169Z,32.60
2023-04-16T01:53:56.154Z,31.80
2023-04-16T01:56:57.916Z,33.17
2023-04-16T01:59:59.622Z,33.53
2023-04-16T02:03:01.675Z,35.00
2023-04-16T02:06:03.727Z,35.83
2023-04-16T02:09:05.484Z,35.17
2023-04-16T02:12:07.885Z,35.00
2023-04-16T02:15:10.051Z,36.20
2023-04-16T02:18:11.737Z,35.07
2023-04-16T02:21:13.947Z,32.57
2023-04-16T02:24:15.801Z,32.23
2023-04-16T02:27:17.523Z,32.67
2023-04-16T02:30:19.268Z,31.47
2023-04-16T02:33:21.197Z,29.73
2023-04-16T02:36:23.308Z,30.20
2023-04-16T02:39:25.052Z,29.57
2023-04-16T02:42:26.791Z,29.37
2023-04-16T02:45:28.571Z,28.23
2023-04-16T02:48:30.385Z,28.30
2023-04-16T02:51:33.233Z,28.70
2023-04-16T02:54:34.944Z,27.17
2023-04-16T02:57:36.727Z,29.23
2023-04-16T03:00:38.498Z,31.03
2023-04-16T03:03:40.359Z,32.70
2023-04-16T03:06:42.013Z,31.90
2023-04-16T03:09:43.944Z,32.43
2023-04-16T03:12:45.729Z,33.67
2023-04-16T03:15:50.693Z,33.70
2023-04-16T03:18:52.421Z,34.90
2023-04-16T03:21:54.124Z,35.03
2023-04-16T03:24:55.909Z,35.33
2023-04-16T03:27:57.629Z,35.83
2023-04-16T03:30:59.477Z,36.30
2023-04-16T03:34:01.459Z,37.87
2023-04-16T03:37:03.198Z,38.73
2023-04-16T03:40:08.315Z,40.60
2023-04-16T03:43:10.112Z,41.83
2023-04-16T03:46:11.901Z,44.67
2023-04-16T03:49:13.684Z,44.50
2023-04-16T03:52:15.849Z,45.37
2023-04-16T03:55:17.589Z,47.87
2023-04-16T03:58:19.967Z,46.53
2023-04-16T04:01:21.635Z,46.00
2023-04-16T04:04:23.499Z,46.43
2023-04-16T04:07:25.364Z,44.37
2023-04-16T04:10:27.180Z,43.43
2023-04-16T04:13:28.912Z,43.77
2023-04-16T04:16:31.539Z,43.10
2023-04-16T04:19:33.340Z,43.57
2023-04-16T04:22:35.053Z,43.37
2023-04-16T04:25:36.858Z,41.60
2023-04-16T04:28:38.559Z,40.87
2023-04-16T04:31:40.926Z,43.17
2023-04-16T04:34:42.638Z,40.80
2023-04-16T04:37:44.396Z,38.40
2023-04-16T04:40:46.824Z,42.47
2023-04-16T04:43:48.523Z,42.93
2023-04-16T04:46:50.445Z,40.73
2023-04-16T04:49:52.179Z,42.50
2023-04-16T04:52:53.870Z,41.80
2023-04-16T04:56:01.744Z,43.40
2023-04-16T04:59:11.454Z,41.43
2023-04-16T05:02:13.874Z,43.40
2023-04-16T05:05:15.655Z,44.10
2023-04-16T05:08:17.530Z,42.73
2023-04-16T05:11:19.227Z,42.73
2023-04-16T05:14:21.112Z,43.60
2023-04-16T05:17:23.013Z,41.83
2023-04-16T05:20:24.772Z,44.87
2023-04-16T05:23:26.458Z,44.47
2023-04-16T05:26:28.193Z,44.40
2023-04-16T05:29:29.991Z,43.53
2023-04-16T05:32:31.737Z,43.77
2023-04-16T05:35:34.429Z,42.47
2023-04-16T05:38:36.128Z,46.17
2023-04-16T05:41:37.873Z,44.43
2023-04-16T05:44:40.584Z,43.97
2023-04-16T05:47:42.375Z,45.13
2023-04-16T05:50:44.323Z,43.93
2023-04-16T05:53:46.028Z,45.37
2023-04-16T05:56:47.711Z,44.90
2023-04-16T05:59:49.400Z,44.47
2023-04-16T06:02:51.426Z,44.70
2023-04-16T06:05:53.692Z,42.97
2023-04-16T06:08:55.452Z,43.47
2023-04-16T06:11:57.971Z,44.03
2023-04-16T06:15:18.338Z,45.97
2023-04-16T06:18:20.170Z,42.87
2023-04-16T06:21:21.962Z,43.83
2023-04-16T06:24:23.653Z,42.70
2023-04-16T06:27:25.914Z,44.40
2023-04-16T06:30:27.788Z,42.63
2023-04-16T06:33:29.539Z,43.67
2023-04-16T06:36:31.328Z,41.70
2023-04-16T06:39:33.247Z,42.80
2023-04-16T06:42:34.998Z,42.73
2023-04-16T06:45:45.028Z,41.63
2023-04-16T06:48:49.910Z,40.87
2023-04-16T06:51:51.706Z,41.50
2023-04-16T06:54:53.407Z,39.17
2023-04-16T06:57:55.097Z,41.40
2023-04-16T07:00:56.974Z,41.00
2023-04-16T07:03:59.174Z,40.40
2023-04-16T07:07:01.186Z,38.83
2023-04-16T07:10:05.759Z,37.33
2023-04-16T07:13:07.530Z,36.93
2023-04-16T07:16:09.707Z,38.00
2023-04-16T07:19:11.963Z,37.03
2023-04-16T07:22:22.053Z,34.47
2023-04-16T07:25:23.829Z,34.80
2023-04-16T07:28:25.943Z,33.93
2023-04-16T07:31:31.002Z,33.60
2023-04-16T07:34:32.715Z,31.80
2023-04-16T07:37:34.472Z,30.67
2023-04-16T07:40:37.563Z,29.10
2023-04-16T07:43:39.276Z,29.10
2023-04-16T07:46:46.897Z,29.60
2023-04-16T07:49:55.017Z,29.90
2023-04-16T07:52:56.751Z,28.40
2023-04-16T07:55:58.467Z,28.30
2023-04-16T07:59:08.043Z,28.40
2023-04-16T08:02:21.028Z,28.13
2023-04-16T08:05:22.872Z,28.63
2023-04-16T08:08:24.768Z,27.50
2023-04-16T08:11:26.517Z,28.13
2023-04-16T08:14:28.458Z,27.13
2023-04-16T08:17:30.198Z,26.60
2023-04-16T08:20:32.593Z,27.00
2023-04-16T08:23:34.506Z,25.20
2023-04-16T08:26:36.213Z,25.80
2023-04-16T08:29:37.913Z,24.67
2023-04-16T08:32:39.873Z,25.40
2023-04-16T08:35:41.654Z,25.10
2023-04-16T08:38:43.347Z,24.60
2023-04-16T08:41:46.873Z,24.60
2023-04-16T08:44:52.957Z,25.90
2023-04-16T08:47:54.683Z,26.27
2023-04-16T08:50:56.782Z,24.97
2023-04-16T08:54:28.214Z,23.87
2023-04-16T08:57:35.595Z,26.50
2023-04-16T09:00:39.422Z,24.53
2023-04-16T09:03:41.882Z,24.43
2023-04-16T09:06:44.205Z,24.73
2023-04-16T09:09:48.510Z,25.33
2023-04-16T09:12:50.378Z,26.73
2023-04-16T09:15:57.092Z,27.10
2023-04-16T09:18:58.892Z,27.63
2023-04-16T09:22:00.625Z,27.70
2023-04-16T09:25:02.803Z,28.23
2023-04-16T09:28:04.704Z,26.17
2023-04-16T09:31:17.452Z,27.30
2023-04-16T09:34:19.203Z,26.50
2023-04-16T09:37:21.067Z,25.40
2023-04-16T09:40:27.512Z,25.57
2023-04-16T09:43:29.257Z,24.37
2023-04-16T09:46:43.314Z,25.77
2023-04-16T09:49:45.562Z,23.40
2023-04-16T09:52:51.650Z,23.53
2023-04-16T09:55:57.768Z,23.70
2023-04-16T09:59:02.702Z,24.33
2023-04-16T10:02:14.680Z,27.17
2023-04-16T10:05:26.821Z,26.03
2023-04-16T10:08:29.021Z,27.60
2023-04-16T10:11:31.319Z,27.50
2023-04-16T10:14:36.452Z,28.20
2023-04-16T10:17:39.130Z,29.47
2023-04-16T10:20:41.033Z,31.40
2023-04-16T10:23:43.819Z,31.83
2023-04-16T10:26:46.885Z,31.03
2023-04-16T10:29:49.257Z,31.27
2023-04-16T10:32:51.970Z,33.23
2023-04-16T10:36:17.482Z,33.90
2023-04-16T10:39:21.885Z,35.33
2023-04-16T10:42:23.740Z,35.43
2023-04-16T10:45:37.316Z,36.20
2023-04-16T10:48:49.112Z,34.83
2023-04-16T10:52:08.401Z,34.30
2023-04-16T10:55:17.404Z,36.77
2023-04-16T10:58:34.895Z,37.93
2023-04-16T11:01:41.035Z,36.73
2023-04-16T11:04:45.714Z,37.50
2023-04-16T11:07:49.801Z,37.03
2023-04-16T11:10:52.389Z,36.03
2023-04-16T11:13:56.979Z,37.03
2023-04-16T11:16:58.772Z,36.17
2023-04-16T11:20:00.992Z,39.60
2023-04-16T11:23:02.693Z,35.43
2023-04-16T11:26:04.455Z,36.20
2023-04-16T11:29:15.029Z,37.10
2023-04-16T11:32:23.066Z,36.20
2023-04-16T11:35:24.931Z,35.97
2023-04-16T11:38:41.184Z,35.00
2023-04-16T11:41:47.521Z,34.00
2023-04-16T11:44:54.328Z,32.17
2023-04-16T11:47:57.806Z,33.60
2023-04-16T11:50:59.911Z,33.23
2023-04-16T11:54:02.419Z,33.03
2023-04-16T11:57:06.911Z,32.70
2023-04-16T12:00:13.940Z,32.23
2023-04-16T12:03:16.428Z,31.60
2023-04-16T12:06:18.286Z,32.00
2023-04-16T12:09:27.328Z,29.20
2023-04-16T12:12:31.864Z,31.10
2023-04-16T12:15:44.972Z,30.70
2023-04-16T12:19:01.251Z,29.60
2023-04-16T12:22:02.970Z,30.47
2023-04-16T12:25:11.896Z,31.87
2023-04-16T12:28:13.856Z,32.13
2023-04-16T12:31:15.800Z,34.37
2023-04-16T12:34:18.823Z,35.67
2023-04-16T12:37:20.587Z,34.23
2023-04-16T12:40:22.329Z,32.93
2023-04-16T12:43:24.999Z,31.83
2023-04-16T12:46:26.817Z,30.57
2023-04-16T12:49:28.630Z,30.47
2023-04-16T12:52:30.991Z,29.43
2023-04-16T12:55:55.007Z,28.93
2023-04-16T12:58:56.921Z,29.53
2023-04-16T13:02:00.880Z,30.07
2023-04-16T13:05:02.908Z,30.07
2023-04-16T13:12:32.851Z,27.93
2023-04-16T13:15:34.728Z,25.73
2023-04-16T13:18:37.120Z,23.30
2023-04-16T13:21:39.005Z,23.03
2023-04-16T13:24:40.784Z,23.60
2023-04-16T13:27:42.537Z,24.60
2023-04-16T13:30:45.213Z,24.57
2023-04-16T13:33:47.568Z,25.07
2023-04-16T13:36:49.502Z,24.27
2023-04-16T13:39:51.202Z,25.00
2023-04-16T13:42:53.094Z,23.03
2023-04-16T13:45:54.791Z,22.20
2023-04-16T13:48:56.633Z,22.00
2023-04-16T13:51:58.347Z,22.73
2023-04-16T13:55:00.616Z,23.50
2023-04-16T13:58:03.137Z,23.37
2023-04-16T14:01:05.115Z,23.63
2023-04-16T14:04:07.488Z,24.33
2023-04-16T14:07:09.297Z,25.20
2023-04-16T14:10:11.484Z,23.07
2023-04-16T14:13:13.362Z,24.17
2023-04-16T14:16:17.554Z,23.63
2023-04-16T14:19:19.242Z,23.13
2023-04-16T14:22:21.179Z,21.57
2023-04-16T14:25:23.685Z,22.93
2023-04-16T14:32:47.914Z,23.00
2023-04-16T14:35:51.324Z,23.00
2023-04-16T14:38:53.106Z,22.27
2023-04-16T14:41:54.910Z,23.67
2023-04-16T14:44:56.912Z,21.77
2023-04-16T14:47:58.726Z,22.00
2023-04-16T14:51:00.620Z,21.20
2023-04-16T14:54:02.404Z,21.43
2023-04-16T14:57:05.620Z,20.70
2023-04-16T15:00:09.754Z,21.70
2023-04-16T15:03:11.732Z,22.50
2023-04-16T15:06:14.503Z,23.23
2023-04-16T15:09:16.224Z,23.10
2023-04-16T15:12:19.143Z,21.67
2023-04-16T15:15:21.208Z,21.03
2023-04-16T15:18:23.022Z,19.67
2023-04-16T15:21:26.533Z,18.90
2023-04-16T15:24:28.303Z,18.70
2023-04-16T15:27:30.032Z,19.57
2023-04-16T15:30:31.802Z,18.73
2023-04-16T15:33:33.599Z,18.70
2023-04-16T15:36:35.648Z,19.43
2023-04-16T15:39:37.370Z,17.97
2023-04-16T15:42:39.259Z,19.20
2023-04-16T15:45:51.168Z,18.93
2023-04-16T15:48:52.877Z,19.27
2023-04-16T15:51:55.584Z,19.87
2023-04-16T15:54:57.863Z,20.00
2023-04-16T15:57:59.736Z,18.60
2023-04-16T16:01:01.676Z,20.63
2023-04-16T16:04:03.611Z,20.57
2023-04-16T16:07:05.744Z,18.97
2023-04-16T16:10:09.273Z,19.50
2023-04-16T16:13:14.094Z,19.73
2023-04-16T16:16:16.191Z,19.70
2023-04-16T16:19:17.982Z,19.67
2023-04-16T16:22:20.683Z,19.10
2023-04-16T16:25:23.283Z,19.13
2023-04-16T16:28:25.336Z,19.90
2023-04-16T16:31:27.153Z,18.00
2023-04-16T16:34:28.903Z,18.83
2023-04-16T16:37:30.754Z,19.33
2023-04-16T16:40:32.701Z,19.93
2023-04-16T16:43:36.702Z,18.80
2023-04-16T16:46:38.508Z,19.17
2023-04-16T16:49:40.340Z,18.90
2023-04-16T16:52:42.105Z,19.43
2023-04-16T16:55:43.829Z,20.17
2023-04-16T16:58:45.532Z,20.00
2023-04-16T17:01:47.319Z,20.60
2023-04-16T17:04:49.185Z,19.27
2023-04-16T17:07:51.058Z,19.20
2023-04-16T17:10:52.767Z,21.47
2023-04-16T17:13:54.647Z,21.73
2023-04-16T17:17:03.866Z,22.50
2023-04-16T17:20:09.937Z,23.67
2023-04-16T17:23:11.985Z,24.53
2023-04-16T17:26:13.696Z,22.47
2023-04-16T17:29:15.464Z,24.53
2023-04-16T17:32:17.299Z,23.50
2023-04-16T17:35:19.175Z,24.23
2023-04-16T17:38:20.992Z,24.23
2023-04-16T17:41:22.720Z,25.40
2023-04-16T17:44:25.726Z,25.43
2023-04-16T17:47:39.456Z,25.70
2023-04-16T17:50:41.295Z,25.50
2023-04-16T17:53:43.598Z,25.10
2023-04-16T17:56:46.167Z,24.93
2023-04-16T17:59:47.864Z,23.63
2023-04-16T18:02:52.332Z,24.00
2023-04-16T18:05:54.227Z,25.57
2023-04-16T18:08:56.666Z,24.73
2023-04-16T18:11:58.334Z,26.13
2023-04-16T18:15:00.031Z,28.10
2023-04-16T18:18:01.740Z,31.10
2023-04-16T18:21:03.530Z,31.23
2023-04-16T18:24:05.611Z,29.40
2023-04-16T18:27:07.392Z,29.13
2023-04-16T18:30:18.899Z,28.87
2023-04-16T18:33:42.769Z,28.43
2023-04-16T18:36:46.890Z,27.77
2023-04-16T18:39:48.582Z,28.80
2023-04-16T18:42:50.609Z,28.00
2023-04-16T18:45:52.420Z,27.07
2023-04-16T18:48:54.227Z,28.03
2023-04-16T18:51:56.044Z,27.57
2023-04-16T18:54:57.801Z,29.07
2023-04-16T18:57:59.512Z,28.50
2023-04-16T19:01:02.159Z,27.40
2023-04-16T19:04:04.119Z,28.90
2023-04-16T19:07:06.085Z,27.87
2023-04-16T19:10:08.374Z,28.83
2023-04-16T19:13:10.215Z,29.43
2023-04-16T19:16:12.378Z,28.30
2023-04-16T19:19:14.289Z,30.87
2023-04-16T19:22:15.998Z,30.37
2023-04-16T19:25:17.780Z,31.83
2023-04-16T19:28:19.520Z,31.07
2023-04-16T19:35:50.439Z,29.20
2023-04-16T19:38:52.233Z,29.27
2023-04-16T19:41:53.929Z,29.47
2023-04-16T19:44:55.697Z,28.83
2023-04-16T19:47:57.832Z,29.60
2023-04-16T19:51:06.010Z,30.93
2023-04-16T19:54:07.806Z,30.63
2023-04-16T19:57:09.621Z,29.83
2023-04-16T20:00:11.911Z,30.83
2023-04-16T20:03:13.699Z,32.03
2023-04-16T20:06:17.444Z,30.43
2023-04-16T20:09:20.168Z,30.07
2023-04-16T20:12:22.420Z,31.50
2023-04-16T20:15:24.162Z,30.50
2023-04-16T20:18:28.251Z,31.43
2023-04-16T20:21:31.636Z,29.63
2023-04-16T20:24:34.255Z,30.90
2023-04-16T20:27:36.304Z,31.23
2023-04-16T20:30:41.392Z,29.63
2023-04-16T20:33:43.116Z,30.17
2023-04-16T20:36:44.878Z,29.73
2023-04-16T20:39:49.950Z,30.43
2023-04-16T20:42:52.113Z,30.70
2023-04-16T20:45:53.868Z,30.70
2023-04-16T20:49:26.900Z,31.73
2023-04-16T20:52:28.656Z,31.00
2023-04-16T20:55:30.386Z,32.63
2023-04-16T20:58:38.697Z,31.63
2023-04-16T21:01:40.583Z,32.90
2023-04-16T21:04:42.401Z,31.40
2023-04-16T21:07:44.166Z,31.47
2023-04-16T21:10:46.439Z,31.07
2023-04-16T21:13:48.229Z,30.60
2023-04-16T21:16:49.988Z,30.83
2023-04-16T21:19:51.784Z,30.73
2023-04-16T21:22:56.742Z,28.90
2023-04-16T21:25:58.475Z,29.00
2023-04-16T21:29:00.234Z,27.90
2023-04-16T21:32:01.978Z,28.00
2023-04-16T21:35:03.945Z,28.27
2023-04-16T21:38:05.701Z,26.73
2023-04-16T21:41:07.412Z,27.77
2023-04-16T21:44:09.111Z,26.47
2023-04-16T21:47:10.912Z,27.67
2023-04-16T21:50:12.987Z,26.00
2023-04-16T21:53:14.756Z,26.60
2023-04-16T21:56:16.461Z,25.77
2023-04-16T21:59:27.418Z,26.70
2023-04-16T22:02:29.245Z,25.60
2023-04-16T22:05:33.165Z,22.20
2023-04-16T22:08:34.921Z,22.23
2023-04-16T22:11:36.652Z,22.67
2023-04-16T22:14:44.056Z,21.53
2023-04-16T22:17:51.701Z,22.00
2023-04-16T22:20:54.942Z,19.57
2023-04-16T22:23:57.002Z,21.27
2023-04-16T22:26:58.770Z,21.67
2023-04-16T22:30:01.540Z,22.80
2023-04-16T22:33:03.904Z,23.70
2023-04-16T22:36:06.249Z,24.47
2023-04-16T22:39:08.642Z,24.33
2023-04-16T22:42:10.448Z,23.70
2023-04-16T22:45:12.721Z,25.90
2023-04-16T22:48:14.443Z,26.53
2023-04-16T22:51:16.162Z,27.50
2023-04-16T22:54:17.855Z,27.17
2023-04-16T22:57:25.357Z,28.33
2023-04-16T23:00:27.260Z,26.43
2023-04-16T23:03:29.170Z,26.83
2023-04-16T23:06:31.562Z,25.90
2023-04-16T23:09:33.480Z,24.80
2023-04-16T23:16:57.300Z,25.13
2023-04-16T23:19:58.972Z,26.90
2023-04-16T23:23:00.749Z,27.50
2023-04-16T23:26:02.847Z,29.00
2023-04-16T23:29:04.770Z,32.17
2023-04-16T23:32:06.548Z,33.23
2023-04-16T23:35:08.914Z,34.27
2023-04-16T23:38:10.681Z,33.53
2023-04-16T23:41:12.449Z,31.67
2023-04-16T23:44:14.166Z,33.07
2023-04-16T23:47:15.928Z,31.07
2023-04-16T23:50:17.777Z,30.77
2023-04-16T23:53:19.509Z,30.33
2023-04-16T23:56:21.268Z,31.47
2023-04-16T23:59:24.166Z,29.30
